sensor_id;sensor_type;location;lat;lon;timestamp;temperature;humidity
9373;DHT22;10838;52.350;9.790;2022-10-13T00:02:06;7.20;95.50
9373;DHT22;10838;52.350;9.790;2022-10-13T00:04:34;7.20;95.50
9373;DHT22;10838;52.350;9.790;2022-10-13T00:07:00;7.10;95.50
9373;DHT22;10838;52.350;9.790;2022-10-13T00:09:27;7.10;95.60
9373;DHT22;10838;52.350;9.790;2022-10-13T00:11:56;7.10;95.50
9373;DHT22;10838;52.350;9.790;2022-10-13T00:14:23;7.10;95.50
9373;DHT22;10838;52.350;9.790;2022-10-13T00:16:49;7.10;95.50
9373;DHT22;10838;52.350;9.790;2022-10-13T00:19:16;7.00;95.50
9373;DHT22;10838;52.350;9.790;2022-10-13T00:21:44;7.00;95.50
9373;DHT22;10838;52.350;9.790;2022-10-13T00:24:11;7.00;95.50
9373;DHT22;10838;52.350;9.790;2022-10-13T00:26:37;7.00;95.50
9373;DHT22;10838;52.350;9.790;2022-10-13T00:29:04;7.00;95.50
9373;DHT22;10838;52.350;9.790;2022-10-13T00:31:31;7.00;95.50
9373;DHT22;10838;52.350;9.790;2022-10-13T00:33:59;7.00;95.60
9373;DHT22;10838;52.350;9.790;2022-10-13T00:36:26;7.00;95.60
9373;DHT22;10838;52.350;9.790;2022-10-13T00:38:55;7.00;95.60
9373;DHT22;10838;52.350;9.790;2022-10-13T00:41:22;7.00;95.60
9373;DHT22;10838;52.350;9.790;2022-10-13T00:43:57;7.00;95.60
9373;DHT22;10838;52.350;9.790;2022-10-13T00:46:26;7.00;95.60
9373;DHT22;10838;52.350;9.790;2022-10-13T00:48:54;7.00;95.60
9373;DHT22;10838;52.350;9.790;2022-10-13T00:51:25;7.10;95.70
9373;DHT22;10838;52.350;9.790;2022-10-13T00:53:54;7.10;95.70
9373;DHT22;10838;52.350;9.790;2022-10-13T00:56:23;7.10;95.70
9373;DHT22;10838;52.350;9.790;2022-10-13T00:58:51;7.10;95.70
9373;DHT22;10838;52.350;9.790;2022-10-13T01:01:18;7.10;95.70
9373;DHT22;10838;52.350;9.790;2022-10-13T01:03:45;7.20;95.80
9373;DHT22;10838;52.350;9.790;2022-10-13T01:06:13;7.20;95.80
9373;DHT22;10838;52.350;9.790;2022-10-13T01:08:41;7.20;95.80
9373;DHT22;10838;52.350;9.790;2022-10-13T01:11:19;7.20;95.80
9373;DHT22;10838;52.350;9.790;2022-10-13T01:13:51;7.20;95.90
9373;DHT22;10838;52.350;9.790;2022-10-13T01:16:25;7.30;95.90
9373;DHT22;10838;52.350;9.790;2022-10-13T01:19:00;7.30;95.90
9373;DHT22;10838;52.350;9.790;2022-10-13T01:21:38;7.30;95.90
9373;DHT22;10838;52.350;9.790;2022-10-13T01:24:27;7.30;96.00
9373;DHT22;10838;52.350;9.790;2022-10-13T01:27:11;7.40;96.00
9373;DHT22;10838;52.350;9.790;2022-10-13T01:30:05;7.40;96.00
9373;DHT22;10838;52.350;9.790;2022-10-13T01:32:47;7.40;96.10
9373;DHT22;10838;52.350;9.790;2022-10-13T01:35:19;7.40;96.10
9373;DHT22;10838;52.350;9.790;2022-10-13T01:37:51;7.40;96.10
9373;DHT22;10838;52.350;9.790;2022-10-13T01:40:24;7.40;96.10
9373;DHT22;10838;52.350;9.790;2022-10-13T01:42:55;7.50;96.20
9373;DHT22;10838;52.350;9.790;2022-10-13T01:45:29;7.40;96.20
9373;DHT22;10838;52.350;9.790;2022-10-13T01:47:58;7.40;96.20
9373;DHT22;10838;52.350;9.790;2022-10-13T01:50:25;7.50;96.20
9373;DHT22;10838;52.350;9.790;2022-10-13T01:52:52;7.50;96.20
9373;DHT22;10838;52.350;9.790;2022-10-13T01:55:20;7.50;96.30
9373;DHT22;10838;52.350;9.790;2022-10-13T01:57:46;7.50;96.30
9373;DHT22;10838;52.350;9.790;2022-10-13T02:00:15;7.50;96.30
9373;DHT22;10838;52.350;9.790;2022-10-13T02:02:55;7.50;96.30
9373;DHT22;10838;52.350;9.790;2022-10-13T02:05:30;7.50;96.30
9373;DHT22;10838;52.350;9.790;2022-10-13T02:08:04;7.50;96.30
9373;DHT22;10838;52.350;9.790;2022-10-13T02:10:37;7.50;96.30
9373;DHT22;10838;52.350;9.790;2022-10-13T02:13:08;7.50;96.40
9373;DHT22;10838;52.350;9.790;2022-10-13T02:15:40;7.50;96.40
9373;DHT22;10838;52.350;9.790;2022-10-13T02:18:10;7.50;96.40
9373;DHT22;10838;52.350;9.790;2022-10-13T02:20:39;7.50;96.40
9373;DHT22;10838;52.350;9.790;2022-10-13T02:23:09;7.50;96.40
9373;DHT22;10838;52.350;9.790;2022-10-13T02:25:36;7.50;96.50
9373;DHT22;10838;52.350;9.790;2022-10-13T02:28:04;7.60;96.50
9373;DHT22;10838;52.350;9.790;2022-10-13T02:30:33;7.60;96.60
9373;DHT22;10838;52.350;9.790;2022-10-13T02:33:00;7.60;96.60
9373;DHT22;10838;52.350;9.790;2022-10-13T02:35:28;7.70;96.70
9373;DHT22;10838;52.350;9.790;2022-10-13T02:37:55;7.70;96.70
9373;DHT22;10838;52.350;9.790;2022-10-13T02:40:22;7.70;96.70
9373;DHT22;10838;52.350;9.790;2022-10-13T02:42:49;7.70;96.80
9373;DHT22;10838;52.350;9.790;2022-10-13T02:45:15;7.70;96.80
9373;DHT22;10838;52.350;9.790;2022-10-13T02:47:42;7.80;96.80
9373;DHT22;10838;52.350;9.790;2022-10-13T02:50:09;7.80;96.90
9373;DHT22;10838;52.350;9.790;2022-10-13T02:52:37;7.80;96.90
9373;DHT22;10838;52.350;9.790;2022-10-13T02:55:04;7.80;96.90
9373;DHT22;10838;52.350;9.790;2022-10-13T02:57:32;7.80;96.90
9373;DHT22;10838;52.350;9.790;2022-10-13T02:59:58;7.80;96.90
9373;DHT22;10838;52.350;9.790;2022-10-13T03:02:25;7.80;96.90
9373;DHT22;10838;52.350;9.790;2022-10-13T03:04:52;7.80;96.90
9373;DHT22;10838;52.350;9.790;2022-10-13T03:07:19;7.80;96.90
9373;DHT22;10838;52.350;9.790;2022-10-13T03:09:47;7.70;96.90
9373;DHT22;10838;52.350;9.790;2022-10-13T03:12:14;7.70;96.90
9373;DHT22;10838;52.350;9.790;2022-10-13T03:14:40;7.70;96.90
9373;DHT22;10838;52.350;9.790;2022-10-13T03:17:08;7.70;96.90
9373;DHT22;10838;52.350;9.790;2022-10-13T03:19:34;7.70;96.90
9373;DHT22;10838;52.350;9.790;2022-10-13T03:22:01;7.70;96.90
9373;DHT22;10838;52.350;9.790;2022-10-13T03:24:28;7.70;96.90
9373;DHT22;10838;52.350;9.790;2022-10-13T03:26:56;7.70;96.90
9373;DHT22;10838;52.350;9.790;2022-10-13T03:29:22;7.70;96.90
9373;DHT22;10838;52.350;9.790;2022-10-13T03:31:49;7.70;96.90
9373;DHT22;10838;52.350;9.790;2022-10-13T03:34:16;7.70;96.90
9373;DHT22;10838;52.350;9.790;2022-10-13T03:36:44;7.70;96.90
9373;DHT22;10838;52.350;9.790;2022-10-13T03:39:11;7.70;96.90
9373;DHT22;10838;52.350;9.790;2022-10-13T03:41:37;7.70;96.90
9373;DHT22;10838;52.350;9.790;2022-10-13T03:44:05;7.80;97.00
9373;DHT22;10838;52.350;9.790;2022-10-13T03:46:33;7.80;97.00
9373;DHT22;10838;52.350;9.790;2022-10-13T03:48:59;7.80;97.00
9373;DHT22;10838;52.350;9.790;2022-10-13T03:51:26;7.80;97.00
9373;DHT22;10838;52.350;9.790;2022-10-13T03:53:53;7.80;97.00
9373;DHT22;10838;52.350;9.790;2022-10-13T03:56:21;7.80;97.10
9373;DHT22;10838;52.350;9.790;2022-10-13T04:02:12;7.90;97.10
9373;DHT22;10838;52.350;9.790;2022-10-13T04:04:38;7.90;97.10
9373;DHT22;10838;52.350;9.790;2022-10-13T04:07:06;7.90;97.10
9373;DHT22;10838;52.350;9.790;2022-10-13T04:09:33;7.90;97.20
9373;DHT22;10838;52.350;9.790;2022-10-13T04:12:00;8.00;97.20
9373;DHT22;10838;52.350;9.790;2022-10-13T04:14:26;7.90;97.20
9373;DHT22;10838;52.350;9.790;2022-10-13T04:16:53;8.00;97.20
9373;DHT22;10838;52.350;9.790;2022-10-13T04:19:21;8.00;97.20
9373;DHT22;10838;52.350;9.790;2022-10-13T04:21:48;8.00;97.20
9373;DHT22;10838;52.350;9.790;2022-10-13T04:24:15;8.00;97.30
9373;DHT22;10838;52.350;9.790;2022-10-13T04:26:43;8.00;97.30
9373;DHT22;10838;52.350;9.790;2022-10-13T04:29:11;8.00;97.30
9373;DHT22;10838;52.350;9.790;2022-10-13T04:31:38;8.00;97.40
9373;DHT22;10838;52.350;9.790;2022-10-13T04:34:07;8.00;97.30
9373;DHT22;10838;52.350;9.790;2022-10-13T04:36:35;8.00;97.30
9373;DHT22;10838;52.350;9.790;2022-10-13T04:39:02;8.00;97.30
9373;DHT22;10838;52.350;9.790;2022-10-13T04:41:29;8.00;97.30
9373;DHT22;10838;52.350;9.790;2022-10-13T04:43:55;8.00;97.30
9373;DHT22;10838;52.350;9.790;2022-10-13T04:46:25;8.10;97.30
9373;DHT22;10838;52.350;9.790;2022-10-13T04:48:52;8.00;97.40
9373;DHT22;10838;52.350;9.790;2022-10-13T04:51:20;8.00;97.30
9373;DHT22;10838;52.350;9.790;2022-10-13T04:53:53;8.00;97.30
9373;DHT22;10838;52.350;9.790;2022-10-13T04:56:19;8.10;97.30
9373;DHT22;10838;52.350;9.790;2022-10-13T04:58:46;8.00;97.30
9373;DHT22;10838;52.350;9.790;2022-10-13T05:01:14;8.10;97.30
9373;DHT22;10838;52.350;9.790;2022-10-13T05:03:41;8.00;97.30
9373;DHT22;10838;52.350;9.790;2022-10-13T05:06:13;8.00;97.30
9373;DHT22;10838;52.350;9.790;2022-10-13T05:08:40;8.10;97.30
9373;DHT22;10838;52.350;9.790;2022-10-13T05:11:08;8.10;97.30
9373;DHT22;10838;52.350;9.790;2022-10-13T05:13:35;8.10;97.30
9373;DHT22;10838;52.350;9.790;2022-10-13T05:16:05;8.10;97.30
9373;DHT22;10838;52.350;9.790;2022-10-13T05:18:32;8.10;97.30
9373;DHT22;10838;52.350;9.790;2022-10-13T05:21:05;8.10;97.30
9373;DHT22;10838;52.350;9.790;2022-10-13T05:23:32;8.10;97.30
9373;DHT22;10838;52.350;9.790;2022-10-13T05:26:01;8.10;97.30
9373;DHT22;10838;52.350;9.790;2022-10-13T05:28:29;8.10;97.40
9373;DHT22;10838;52.350;9.790;2022-10-13T05:30:55;8.10;97.40
9373;DHT22;10838;52.350;9.790;2022-10-13T05:33:22;8.10;97.40
9373;DHT22;10838;52.350;9.790;2022-10-13T05:35:49;8.10;97.40
9373;DHT22;10838;52.350;9.790;2022-10-13T05:38:15;8.10;97.40
9373;DHT22;10838;52.350;9.790;2022-10-13T05:40:42;8.10;97.40
9373;DHT22;10838;52.350;9.790;2022-10-13T05:43:09;8.10;97.40
9373;DHT22;10838;52.350;9.790;2022-10-13T05:45:37;8.10;97.40
9373;DHT22;10838;52.350;9.790;2022-10-13T05:48:04;8.10;97.40
9373;DHT22;10838;52.350;9.790;2022-10-13T05:50:31;8.10;97.40
9373;DHT22;10838;52.350;9.790;2022-10-13T05:52:57;8.10;97.40
9373;DHT22;10838;52.350;9.790;2022-10-13T05:55:24;8.20;97.40
9373;DHT22;10838;52.350;9.790;2022-10-13T05:57:51;8.20;97.50
9373;DHT22;10838;52.350;9.790;2022-10-13T06:00:18;8.20;97.50
9373;DHT22;10838;52.350;9.790;2022-10-13T06:02:52;8.20;97.50
9373;DHT22;10838;52.350;9.790;2022-10-13T06:05:22;8.20;97.50
9373;DHT22;10838;52.350;9.790;2022-10-13T06:07:49;8.20;97.50
9373;DHT22;10838;52.350;9.790;2022-10-13T06:10:18;8.20;97.50
9373;DHT22;10838;52.350;9.790;2022-10-13T06:12:44;8.30;97.50
9373;DHT22;10838;52.350;9.790;2022-10-13T06:15:11;8.30;97.50
9373;DHT22;10838;52.350;9.790;2022-10-13T06:17:38;8.30;97.60
9373;DHT22;10838;52.350;9.790;2022-10-13T06:20:07;8.40;97.60
9373;DHT22;10838;52.350;9.790;2022-10-13T06:22:35;8.40;97.60
9373;DHT22;10838;52.350;9.790;2022-10-13T06:25:03;8.50;97.70
9373;DHT22;10838;52.350;9.790;2022-10-13T06:27:30;8.60;97.70
9373;DHT22;10838;52.350;9.790;2022-10-13T06:29:57;8.60;97.70
9373;DHT22;10838;52.350;9.790;2022-10-13T06:32:24;8.60;97.70
9373;DHT22;10838;52.350;9.790;2022-10-13T06:34:50;8.70;97.80
9373;DHT22;10838;52.350;9.790;2022-10-13T06:37:18;8.70;97.80
9373;DHT22;10838;52.350;9.790;2022-10-13T06:39:45;8.80;97.80
9373;DHT22;10838;52.350;9.790;2022-10-13T06:42:12;8.80;97.80
9373;DHT22;10838;52.350;9.790;2022-10-13T06:44:38;8.90;97.90
9373;DHT22;10838;52.350;9.790;2022-10-13T06:47:05;8.90;97.90
9373;DHT22;10838;52.350;9.790;2022-10-13T06:49:32;9.00;97.90
9373;DHT22;10838;52.350;9.790;2022-10-13T06:51:59;9.00;98.00
9373;DHT22;10838;52.350;9.790;2022-10-13T06:54:27;9.00;98.00
9373;DHT22;10838;52.350;9.790;2022-10-13T06:56:53;9.10;98.00
9373;DHT22;10838;52.350;9.790;2022-10-13T06:59:20;9.10;98.00
9373;DHT22;10838;52.350;9.790;2022-10-13T07:01:47;9.20;98.10
9373;DHT22;10838;52.350;9.790;2022-10-13T07:04:15;9.20;98.10
9373;DHT22;10838;52.350;9.790;2022-10-13T07:06:42;9.30;98.10
9373;DHT22;10838;52.350;9.790;2022-10-13T07:09:09;9.40;98.10
9373;DHT22;10838;52.350;9.790;2022-10-13T07:11:37;9.40;98.10
9373;DHT22;10838;52.350;9.790;2022-10-13T07:14:04;9.50;98.20
9373;DHT22;10838;52.350;9.790;2022-10-13T07:16:31;9.50;98.20
9373;DHT22;10838;52.350;9.790;2022-10-13T07:18:57;9.60;98.20
9373;DHT22;10838;52.350;9.790;2022-10-13T07:21:24;9.70;98.20
9373;DHT22;10838;52.350;9.790;2022-10-13T07:23:51;9.70;98.20
9373;DHT22;10838;52.350;9.790;2022-10-13T07:26:17;9.70;98.30
9373;DHT22;10838;52.350;9.790;2022-10-13T07:28:45;9.80;98.30
9373;DHT22;10838;52.350;9.790;2022-10-13T07:31:14;9.80;98.30
9373;DHT22;10838;52.350;9.790;2022-10-13T07:33:42;9.90;98.30
9373;DHT22;10838;52.350;9.790;2022-10-13T07:36:10;9.90;98.30
9373;DHT22;10838;52.350;9.790;2022-10-13T07:38:37;10.00;98.20
9373;DHT22;10838;52.350;9.790;2022-10-13T07:41:05;10.10;98.20
9373;DHT22;10838;52.350;9.790;2022-10-13T07:43:32;10.10;98.30
9373;DHT22;10838;52.350;9.790;2022-10-13T07:46:02;10.20;98.30
9373;DHT22;10838;52.350;9.790;2022-10-13T07:48:29;10.30;98.30
9373;DHT22;10838;52.350;9.790;2022-10-13T07:50:56;10.40;98.30
9373;DHT22;10838;52.350;9.790;2022-10-13T07:53:23;10.50;98.30
9373;DHT22;10838;52.350;9.790;2022-10-13T07:55:50;10.60;98.30
9373;DHT22;10838;52.350;9.790;2022-10-13T07:58:16;10.70;98.40
9373;DHT22;10838;52.350;9.790;2022-10-13T08:00:43;10.80;98.40
9373;DHT22;10838;52.350;9.790;2022-10-13T08:03:11;10.90;98.40
9373;DHT22;10838;52.350;9.790;2022-10-13T08:05:38;11.00;98.40
9373;DHT22;10838;52.350;9.790;2022-10-13T08:08:04;11.10;98.40
9373;DHT22;10838;52.350;9.790;2022-10-13T08:10:31;11.20;98.40
9373;DHT22;10838;52.350;9.790;2022-10-13T08:12:58;11.20;98.30
9373;DHT22;10838;52.350;9.790;2022-10-13T08:15:25;11.30;98.30
9373;DHT22;10838;52.350;9.790;2022-10-13T08:17:52;11.30;98.30
9373;DHT22;10838;52.350;9.790;2022-10-13T08:20:20;11.40;98.30
9373;DHT22;10838;52.350;9.790;2022-10-13T08:22:47;11.50;98.30
9373;DHT22;10838;52.350;9.790;2022-10-13T08:25:13;11.50;98.30
9373;DHT22;10838;52.350;9.790;2022-10-13T08:27:40;11.60;98.30
9373;DHT22;10838;52.350;9.790;2022-10-13T08:30:08;11.70;98.30
9373;DHT22;10838;52.350;9.790;2022-10-13T08:32:35;11.80;98.30
9373;DHT22;10838;52.350;9.790;2022-10-13T08:35:02;11.80;98.20
9373;DHT22;10838;52.350;9.790;2022-10-13T08:37:30;11.90;98.20
9373;DHT22;10838;52.350;9.790;2022-10-13T08:39:57;12.00;98.20
9373;DHT22;10838;52.350;9.790;2022-10-13T08:42:23;12.10;98.20
9373;DHT22;10838;52.350;9.790;2022-10-13T08:44:52;12.20;98.20
9373;DHT22;10838;52.350;9.790;2022-10-13T08:47:29;12.30;98.20
9373;DHT22;10838;52.350;9.790;2022-10-13T08:50:02;12.40;98.10
9373;DHT22;10838;52.350;9.790;2022-10-13T08:52:46;12.50;98.10
9373;DHT22;10838;52.350;9.790;2022-10-13T08:55:19;12.50;98.00
9373;DHT22;10838;52.350;9.790;2022-10-13T08:57:49;12.60;98.00
9373;DHT22;10838;52.350;9.790;2022-10-13T09:00:16;12.70;97.90
9373;DHT22;10838;52.350;9.790;2022-10-13T09:02:43;12.80;97.90
9373;DHT22;10838;52.350;9.790;2022-10-13T09:05:15;12.80;97.80
9373;DHT22;10838;52.350;9.790;2022-10-13T09:07:45;12.90;97.80
9373;DHT22;10838;52.350;9.790;2022-10-13T09:10:12;13.00;97.70
9373;DHT22;10838;52.350;9.790;2022-10-13T09:12:39;13.00;97.70
9373;DHT22;10838;52.350;9.790;2022-10-13T09:15:08;13.10;97.70
9373;DHT22;10838;52.350;9.790;2022-10-13T09:17:37;13.20;97.60
9373;DHT22;10838;52.350;9.790;2022-10-13T09:20:06;13.30;97.60
9373;DHT22;10838;52.350;9.790;2022-10-13T09:22:34;13.30;97.50
9373;DHT22;10838;52.350;9.790;2022-10-13T09:25:17;13.40;97.40
9373;DHT22;10838;52.350;9.790;2022-10-13T09:27:47;13.50;97.40
9373;DHT22;10838;52.350;9.790;2022-10-13T09:30:25;13.50;97.30
9373;DHT22;10838;52.350;9.790;2022-10-13T09:33:14;13.60;97.30
9373;DHT22;10838;52.350;9.790;2022-10-13T09:35:42;13.70;97.20
9373;DHT22;10838;52.350;9.790;2022-10-13T09:38:10;13.70;97.20
9373;DHT22;10838;52.350;9.790;2022-10-13T09:40:40;13.80;97.20
9373;DHT22;10838;52.350;9.790;2022-10-13T09:43:22;13.80;97.10
9373;DHT22;10838;52.350;9.790;2022-10-13T09:45:50;13.90;97.10
9373;DHT22;10838;52.350;9.790;2022-10-13T09:48:20;13.90;97.10
9373;DHT22;10838;52.350;9.790;2022-10-13T09:50:49;14.00;97.10
9373;DHT22;10838;52.350;9.790;2022-10-13T09:53:21;14.00;97.10
9373;DHT22;10838;52.350;9.790;2022-10-13T09:56:07;14.10;97.10
9373;DHT22;10838;52.350;9.790;2022-10-13T09:58:36;14.10;97.00
9373;DHT22;10838;52.350;9.790;2022-10-13T10:01:04;14.20;97.00
9373;DHT22;10838;52.350;9.790;2022-10-13T10:03:33;14.30;97.00
9373;DHT22;10838;52.350;9.790;2022-10-13T10:06:01;14.30;97.00
9373;DHT22;10838;52.350;9.790;2022-10-13T10:08:33;14.40;97.00
9373;DHT22;10838;52.350;9.790;2022-10-13T10:11:09;14.40;96.90
9373;DHT22;10838;52.350;9.790;2022-10-13T10:13:37;14.50;96.90
9373;DHT22;10838;52.350;9.790;2022-10-13T10:16:08;14.50;96.80
9373;DHT22;10838;52.350;9.790;2022-10-13T10:18:39;14.60;96.80
9373;DHT22;10838;52.350;9.790;2022-10-13T10:21:11;14.70;96.80
9373;DHT22;10838;52.350;9.790;2022-10-13T10:23:46;14.80;96.70
9373;DHT22;10838;52.350;9.790;2022-10-13T10:26:18;14.90;96.70
9373;DHT22;10838;52.350;9.790;2022-10-13T10:32:04;15.10;96.70
9373;DHT22;10838;52.350;9.790;2022-10-13T10:34:37;15.10;96.60
9373;DHT22;10838;52.350;9.790;2022-10-13T10:37:18;15.30;96.60
9373;DHT22;10838;52.350;9.790;2022-10-13T10:39:51;15.40;96.50
9373;DHT22;10838;52.350;9.790;2022-10-13T10:42:41;15.50;96.50
9373;DHT22;10838;52.350;9.790;2022-10-13T10:45:15;15.60;96.40
9373;DHT22;10838;52.350;9.790;2022-10-13T10:47:44;15.60;96.40
9373;DHT22;10838;52.350;9.790;2022-10-13T10:50:14;15.70;96.30
9373;DHT22;10838;52.350;9.790;2022-10-13T10:52:47;15.70;96.30
9373;DHT22;10838;52.350;9.790;2022-10-13T10:55:19;15.80;96.30
9373;DHT22;10838;52.350;9.790;2022-10-13T10:57:56;15.80;96.30
9373;DHT22;10838;52.350;9.790;2022-10-13T11:00:25;15.90;96.30
9373;DHT22;10838;52.350;9.790;2022-10-13T11:03:00;15.90;96.20
9373;DHT22;10838;52.350;9.790;2022-10-13T11:06:00;16.00;96.20
9373;DHT22;10838;52.350;9.790;2022-10-13T11:08:28;16.00;96.20
9373;DHT22;10838;52.350;9.790;2022-10-13T11:14:25;16.10;96.10
9373;DHT22;10838;52.350;9.790;2022-10-13T11:17:15;16.20;96.10
9373;DHT22;10838;52.350;9.790;2022-10-13T11:19:43;16.20;96.00
9373;DHT22;10838;52.350;9.790;2022-10-13T11:22:11;16.20;96.00
9373;DHT22;10838;52.350;9.790;2022-10-13T11:24:53;16.30;96.00
9373;DHT22;10838;52.350;9.790;2022-10-13T11:27:43;16.30;95.90
9373;DHT22;10838;52.350;9.790;2022-10-13T11:30:46;16.40;95.90
9373;DHT22;10838;52.350;9.790;2022-10-13T11:33:52;16.40;95.90
9373;DHT22;10838;52.350;9.790;2022-10-13T11:36:38;16.40;95.80
9373;DHT22;10838;52.350;9.790;2022-10-13T11:39:51;16.50;95.80
9373;DHT22;10838;52.350;9.790;2022-10-13T11:42:33;16.50;95.70
9373;DHT22;10838;52.350;9.790;2022-10-13T11:45:02;16.60;95.70
9373;DHT22;10838;52.350;9.790;2022-10-13T11:47:59;16.60;95.60
9373;DHT22;10838;52.350;9.790;2022-10-13T11:50:34;16.60;95.60
9373;DHT22;10838;52.350;9.790;2022-10-13T11:53:10;16.70;95.60
9373;DHT22;10838;52.350;9.790;2022-10-13T11:55:47;16.70;95.50
9373;DHT22;10838;52.350;9.790;2022-10-13T11:58:17;16.70;95.50
9373;DHT22;10838;52.350;9.790;2022-10-13T12:00:51;16.80;95.50
9373;DHT22;10838;52.350;9.790;2022-10-13T12:03:23;16.80;95.50
9373;DHT22;10838;52.350;9.790;2022-10-13T12:05:51;16.80;95.50
9373;DHT22;10838;52.350;9.790;2022-10-13T12:08:19;16.90;95.30
9373;DHT22;10838;52.350;9.790;2022-10-13T12:10:51;16.90;95.30
9373;DHT22;10838;52.350;9.790;2022-10-13T12:13:22;16.90;95.20
9373;DHT22;10838;52.350;9.790;2022-10-13T12:15:56;16.90;95.20
9373;DHT22;10838;52.350;9.790;2022-10-13T12:18:27;16.90;95.20
9373;DHT22;10838;52.350;9.790;2022-10-13T12:20:55;17.00;95.20
9373;DHT22;10838;52.350;9.790;2022-10-13T12:23:23;17.00;95.20
9373;DHT22;10838;52.350;9.790;2022-10-13T12:25:51;17.00;95.10
9373;DHT22;10838;52.350;9.790;2022-10-13T12:28:23;17.10;95.10
9373;DHT22;10838;52.350;9.790;2022-10-13T12:30:52;17.10;95.10
9373;DHT22;10838;52.350;9.790;2022-10-13T12:33:26;17.10;95.10
9373;DHT22;10838;52.350;9.790;2022-10-13T12:35:53;17.10;95.10
9373;DHT22;10838;52.350;9.790;2022-10-13T12:38:21;17.20;95.10
9373;DHT22;10838;52.350;9.790;2022-10-13T12:40:50;17.20;95.10
9373;DHT22;10838;52.350;9.790;2022-10-13T12:43:21;17.30;95.10
9373;DHT22;10838;52.350;9.790;2022-10-13T12:45:49;17.30;95.10
9373;DHT22;10838;52.350;9.790;2022-10-13T12:48:32;17.40;95.00
9373;DHT22;10838;52.350;9.790;2022-10-13T12:51:15;17.40;95.00
9373;DHT22;10838;52.350;9.790;2022-10-13T12:53:42;17.50;95.00
9373;DHT22;10838;52.350;9.790;2022-10-13T12:56:21;17.50;94.90
9373;DHT22;10838;52.350;9.790;2022-10-13T12:58:50;17.50;94.90
9373;DHT22;10838;52.350;9.790;2022-10-13T13:01:25;17.60;94.90
9373;DHT22;10838;52.350;9.790;2022-10-13T13:03:56;17.60;94.80
9373;DHT22;10838;52.350;9.790;2022-10-13T13:06:30;17.60;94.80
9373;DHT22;10838;52.350;9.790;2022-10-13T13:12:17;17.60;94.80
9373;DHT22;10838;52.350;9.790;2022-10-13T13:14:45;17.60;94.80
9373;DHT22;10838;52.350;9.790;2022-10-13T13:17:21;17.60;94.80
9373;DHT22;10838;52.350;9.790;2022-10-13T13:19:50;17.60;94.70
9373;DHT22;10838;52.350;9.790;2022-10-13T13:22:18;17.60;94.70
9373;DHT22;10838;52.350;9.790;2022-10-13T13:24:45;17.60;94.70
9373;DHT22;10838;52.350;9.790;2022-10-13T13:27:22;17.70;94.80
9373;DHT22;10838;52.350;9.790;2022-10-13T13:29:49;17.70;94.70
9373;DHT22;10838;52.350;9.790;2022-10-13T13:32:17;17.70;94.70
9373;DHT22;10838;52.350;9.790;2022-10-13T13:34:44;17.70;94.80
9373;DHT22;10838;52.350;9.790;2022-10-13T13:37:24;17.70;94.70
9373;DHT22;10838;52.350;9.790;2022-10-13T13:39:51;17.80;94.70
9373;DHT22;10838;52.350;9.790;2022-10-13T13:42:18;17.80;94.70
9373;DHT22;10838;52.350;9.790;2022-10-13T13:44:45;17.70;94.70
9373;DHT22;10838;52.350;9.790;2022-10-13T13:47:19;17.70;94.70
9373;DHT22;10838;52.350;9.790;2022-10-13T13:49:47;17.70;94.60
9373;DHT22;10838;52.350;9.790;2022-10-13T13:52:15;17.70;94.70
9373;DHT22;10838;52.350;9.790;2022-10-13T13:54:41;17.70;94.60
9373;DHT22;10838;52.350;9.790;2022-10-13T13:57:09;17.70;94.60
9373;DHT22;10838;52.350;9.790;2022-10-13T13:59:36;17.70;94.60
9373;DHT22;10838;52.350;9.790;2022-10-13T14:02:03;17.70;94.70
9373;DHT22;10838;52.350;9.790;2022-10-13T14:04:30;17.70;94.70
9373;DHT22;10838;52.350;9.790;2022-10-13T14:06:57;17.70;94.70
9373;DHT22;10838;52.350;9.790;2022-10-13T14:09:25;17.70;94.70
9373;DHT22;10838;52.350;9.790;2022-10-13T14:11:52;17.70;94.70
9373;DHT22;10838;52.350;9.790;2022-10-13T14:14:18;17.70;94.70
9373;DHT22;10838;52.350;9.790;2022-10-13T14:16:45;17.70;94.70
9373;DHT22;10838;52.350;9.790;2022-10-13T14:19:12;17.70;94.70
9373;DHT22;10838;52.350;9.790;2022-10-13T14:21:39;17.70;94.80
9373;DHT22;10838;52.350;9.790;2022-10-13T14:24:06;17.70;94.70
9373;DHT22;10838;52.350;9.790;2022-10-13T14:26:34;17.70;94.70
9373;DHT22;10838;52.350;9.790;2022-10-13T14:29:01;17.70;94.70
9373;DHT22;10838;52.350;9.790;2022-10-13T14:31:28;17.70;94.70
9373;DHT22;10838;52.350;9.790;2022-10-13T14:33:56;17.70;94.70
9373;DHT22;10838;52.350;9.790;2022-10-13T14:36:23;17.70;94.70
9373;DHT22;10838;52.350;9.790;2022-10-13T14:38:49;17.70;94.70
9373;DHT22;10838;52.350;9.790;2022-10-13T14:41:16;17.70;94.70
9373;DHT22;10838;52.350;9.790;2022-10-13T14:43:44;17.70;94.70
9373;DHT22;10838;52.350;9.790;2022-10-13T14:46:12;17.60;94.70
9373;DHT22;10838;52.350;9.790;2022-10-13T14:48:39;17.70;94.80
9373;DHT22;10838;52.350;9.790;2022-10-13T14:51:06;17.70;94.70
9373;DHT22;10838;52.350;9.790;2022-10-13T14:53:34;17.70;94.70
9373;DHT22;10838;52.350;9.790;2022-10-13T14:56:00;17.60;94.60
9373;DHT22;10838;52.350;9.790;2022-10-13T14:58:27;17.60;94.60
9373;DHT22;10838;52.350;9.790;2022-10-13T15:00:55;17.60;94.70
9373;DHT22;10838;52.350;9.790;2022-10-13T15:03:22;17.60;94.60
9373;DHT22;10838;52.350;9.790;2022-10-13T15:05:52;17.60;94.60
9373;DHT22;10838;52.350;9.790;2022-10-13T15:08:18;17.60;94.60
9373;DHT22;10838;52.350;9.790;2022-10-13T15:10:45;17.50;94.60
9373;DHT22;10838;52.350;9.790;2022-10-13T15:13:12;17.50;94.60
9373;DHT22;10838;52.350;9.790;2022-10-13T15:15:45;17.50;94.60
9373;DHT22;10838;52.350;9.790;2022-10-13T15:18:12;17.50;94.70
9373;DHT22;10838;52.350;9.790;2022-10-13T15:20:44;17.50;94.70
9373;DHT22;10838;52.350;9.790;2022-10-13T15:23:10;17.50;94.70
9373;DHT22;10838;52.350;9.790;2022-10-13T15:25:38;17.40;94.80
9373;DHT22;10838;52.350;9.790;2022-10-13T15:28:05;17.40;94.80
9373;DHT22;10838;52.350;9.790;2022-10-13T15:30:32;17.50;94.80
9373;DHT22;10838;52.350;9.790;2022-10-13T15:32:59;17.40;94.80
9373;DHT22;10838;52.350;9.790;2022-10-13T15:35:29;17.40;94.70
9373;DHT22;10838;52.350;9.790;2022-10-13T15:37:57;17.30;94.70
9373;DHT22;10838;52.350;9.790;2022-10-13T15:40:23;17.30;94.80
9373;DHT22;10838;52.350;9.790;2022-10-13T15:42:51;17.30;94.80
9373;DHT22;10838;52.350;9.790;2022-10-13T15:45:18;17.20;94.80
9373;DHT22;10838;52.350;9.790;2022-10-13T15:47:45;17.10;94.80
9373;DHT22;10838;52.350;9.790;2022-10-13T15:50:11;17.10;94.80
9373;DHT22;10838;52.350;9.790;2022-10-13T15:52:40;17.00;94.80
9373;DHT22;10838;52.350;9.790;2022-10-13T15:55:08;17.00;94.80
9373;DHT22;10838;52.350;9.790;2022-10-13T15:57:35;17.00;94.90
9373;DHT22;10838;52.350;9.790;2022-10-13T16:00:02;16.90;94.80
9373;DHT22;10838;52.350;9.790;2022-10-13T16:02:29;16.90;94.90
9373;DHT22;10838;52.350;9.790;2022-10-13T16:04:55;16.90;94.90
9373;DHT22;10838;52.350;9.790;2022-10-13T16:07:22;16.80;94.90
9373;DHT22;10838;52.350;9.790;2022-10-13T16:09:50;16.80;94.90
9373;DHT22;10838;52.350;9.790;2022-10-13T16:12:17;16.70;94.90
9373;DHT22;10838;52.350;9.790;2022-10-13T16:14:44;16.70;94.90
9373;DHT22;10838;52.350;9.790;2022-10-13T16:17:10;16.70;94.90
9373;DHT22;10838;52.350;9.790;2022-10-13T16:19:37;16.60;95.00
9373;DHT22;10838;52.350;9.790;2022-10-13T16:22:04;16.60;95.00